createdAt,value
2022-10-01T00:00:08.967Z,99807.19
2022-10-01T00:02:39.198Z,99807.19
2022-10-01T00:05:10.957Z,99804.59
2022-10-01T00:07:40.007Z,99812.41
2022-10-01T00:10:09.955Z,99798.69
2022-10-01T00:12:46.757Z,99805.56
2022-10-01T00:15:16.972Z,99814.31
2022-10-01T00:17:45.339Z,99808.13
2022-10-01T00:20:14.855Z,99809.09
2022-10-01T00:22:43.308Z,99801.28
2022-10-01T00:25:12.108Z,99812.63
2022-10-01T00:27:41.857Z,99807.41
2022-10-01T00:30:12.242Z,99780.94
2022-10-01T00:32:41.317Z,99768.72
2022-10-01T00:35:10.433Z,99798.75
2022-10-01T00:37:38.907Z,99789.22
2022-10-01T00:40:08.483Z,99774.66
2022-10-01T00:42:36.870Z,99780.78
2022-10-01T00:45:07.326Z,99768.47
2022-10-01T00:47:40.150Z,99783.06
2022-10-01T00:50:11.950Z,99796.06
2022-10-01T00:52:42.121Z,99790.03
2022-10-01T00:55:13.472Z,99792.66
2022-10-01T00:57:42.803Z,99795.28
2022-10-01T01:00:14.340Z,99803.00
2022-10-01T01:02:42.916Z,99786.59
2022-10-01T01:05:13.904Z,99790.19
2022-10-01T01:07:46.131Z,99779.06
2022-10-01T01:10:15.216Z,99784.22
2022-10-01T01:12:52.099Z,99778.09
2022-10-01T01:15:26.177Z,99787.53
2022-10-01T01:17:57.996Z,99793.72
2022-10-01T01:20:41.959Z,99785.13
2022-10-01T01:23:39.048Z,99790.22
2022-10-01T01:26:13.895Z,99781.56
2022-10-01T01:28:45.408Z,99779.97
2022-10-01T01:31:16.814Z,99775.66
2022-10-01T01:33:47.533Z,99762.94
2022-10-01T01:36:18.669Z,99769.88
2022-10-01T01:38:51.767Z,99788.78
2022-10-01T01:41:21.485Z,99780.16
2022-10-01T01:43:53.776Z,99781.81
2022-10-01T01:46:22.662Z,99756.00
2022-10-01T01:48:53.414Z,99793.00
2022-10-01T01:51:26.184Z,99780.88
2022-10-01T01:53:55.453Z,99782.41
2022-10-01T01:56:24.041Z,99771.19
2022-10-01T01:58:54.874Z,99759.94
2022-10-01T02:01:34.838Z,99771.31
2022-10-01T02:04:04.994Z,99732.09
2022-10-01T02:06:37.077Z,99765.34
2022-10-01T02:09:14.312Z,99770.75
2022-10-01T02:11:49.741Z,99774.38
2022-10-01T02:14:24.221Z,99760.72
2022-10-01T02:16:57.978Z,99774.53
2022-10-01T02:19:28.970Z,99756.56
2022-10-01T02:22:00.994Z,99768.53
2022-10-01T02:24:37.863Z,99765.81
2022-10-01T02:27:11.514Z,99762.44
2022-10-01T02:29:42.359Z,99766.72
2022-10-01T02:32:11.286Z,99746.94
2022-10-01T02:34:40.852Z,99757.19
2022-10-01T02:37:09.989Z,99752.03
2022-10-01T02:39:41.027Z,99722.97
2022-10-01T02:42:10.207Z,99746.13
2022-10-01T02:44:42.671Z,99728.88
2022-10-01T02:47:15.705Z,99731.47
2022-10-01T02:49:44.234Z,99741.75
2022-10-01T02:52:17.791Z,99744.28
2022-10-01T02:54:50.431Z,99738.19
2022-10-01T02:57:27.563Z,99739.09
2022-10-01T03:00:00.181Z,99714.22
2022-10-01T03:02:29.501Z,99731.41
2022-10-01T03:04:58.140Z,99732.16
2022-10-01T03:07:27.244Z,99728.66
2022-10-01T03:09:55.627Z,99734.69
2022-10-01T03:12:24.569Z,99728.72
2022-10-01T03:14:54.202Z,99733.84
2022-10-01T03:17:23.996Z,99730.38
2022-10-01T03:19:52.424Z,99737.25
2022-10-01T03:22:22.791Z,99739.91
2022-10-01T03:24:51.588Z,99733.00
2022-10-01T03:27:20.012Z,99717.56
2022-10-01T03:29:48.819Z,99730.31
2022-10-01T03:32:17.604Z,99726.00
2022-10-01T03:34:47.499Z,99730.31
2022-10-01T03:37:16.051Z,99682.25
2022-10-01T03:39:44.629Z,99706.16
2022-10-01T03:42:13.058Z,99726.81
2022-10-01T03:44:41.435Z,99720.69
2022-10-01T03:47:09.927Z,99722.31
2022-10-01T03:49:38.538Z,99687.09
2022-10-01T03:52:08.314Z,99710.13
2022-10-01T03:54:36.813Z,99710.03
2022-10-01T03:57:06.140Z,99716.00
2022-10-01T03:59:35.020Z,99705.50
2022-10-01T04:02:03.735Z,99712.34
2022-10-01T04:04:32.159Z,99705.53
2022-10-01T04:07:00.522Z,99713.38
2022-10-01T04:09:30.311Z,99696.16
2022-10-01T04:11:59.335Z,99709.22
2022-10-01T04:14:27.764Z,99653.53
2022-10-01T04:16:56.164Z,99685.09
2022-10-01T04:19:24.519Z,99693.69
2022-10-01T04:21:52.854Z,99700.56
2022-10-01T04:24:21.372Z,99710.03
2022-10-01T04:26:52.098Z,99716.13
2022-10-01T04:29:20.508Z,99718.84
2022-10-01T04:31:48.954Z,99713.63
2022-10-01T04:34:17.371Z,99717.88
2022-10-01T04:36:45.727Z,99695.69
2022-10-01T04:39:14.219Z,99719.53
2022-10-01T04:41:42.664Z,99690.28
2022-10-01T04:44:12.569Z,99706.53
2022-10-01T04:46:41.059Z,99685.88
2022-10-01T04:49:09.530Z,99697.94
2022-10-01T04:51:37.937Z,99699.41
2022-10-01T04:54:06.323Z,99699.41
2022-10-01T04:56:34.704Z,99622.31
2022-10-01T04:59:03.305Z,99705.28
2022-10-01T05:01:33.325Z,99695.25
2022-10-01T05:04:02.224Z,99696.75
2022-10-01T05:06:30.617Z,99702.59
2022-10-01T05:08:58.943Z,99708.59
2022-10-01T05:11:27.344Z,99704.19
2022-10-01T05:13:55.698Z,99685.25
2022-10-01T05:16:24.112Z,99707.31
2022-10-01T05:18:54.906Z,99710.53
2022-10-01T05:21:23.280Z,99705.19
2022-10-01T05:23:51.919Z,99711.25
2022-10-01T05:26:20.309Z,99709.47
2022-10-01T05:28:48.661Z,99712.88
2022-10-01T05:31:18.897Z,99686.19
2022-10-01T05:33:47.347Z,99710.97
2022-10-01T05:36:17.435Z,99680.84
2022-10-01T05:38:46.229Z,99705.75
2022-10-01T05:41:14.713Z,99684.03
2022-10-01T05:43:43.998Z,99686.38
2022-10-01T05:46:12.916Z,99693.13
2022-10-01T05:48:41.320Z,99692.19
2022-10-01T05:51:09.715Z,99682.84
2022-10-01T05:53:39.504Z,99681.97
2022-10-01T05:56:08.336Z,99671.84
2022-10-01T05:58:36.769Z,99679.53
2022-10-01T06:01:05.326Z,99656.34
2022-10-01T06:03:33.842Z,99681.19
2022-10-01T06:06:02.234Z,99675.81
2022-10-01T06:08:30.593Z,99674.09
2022-10-01T06:11:03.464Z,99674.69
2022-10-01T06:13:32.212Z,99669.25
2022-10-01T06:16:00.668Z,99670.88
2022-10-01T06:18:29.098Z,99658.63
2022-10-01T06:20:59.958Z,99654.16
2022-10-01T06:23:28.297Z,99664.25
2022-10-01T06:25:56.954Z,99653.66
2022-10-01T06:28:26.781Z,99659.44
2022-10-01T06:30:55.237Z,99665.53
2022-10-01T06:33:24.138Z,99657.66
2022-10-01T06:35:54.123Z,99626.75
2022-10-01T06:38:24.337Z,99653.09
2022-10-01T06:40:54.001Z,99623.03
2022-10-01T06:43:22.792Z,99640.06
2022-10-01T06:45:52.868Z,99646.88
2022-10-01T06:48:21.949Z,99633.03
2022-10-01T06:50:52.339Z,99644.94
2022-10-01T06:53:19.836Z,99632.72
2022-10-01T06:55:50.034Z,99643.34
2022-10-01T06:58:20.367Z,99639.59
2022-10-01T07:00:49.822Z,99630.75
2022-10-01T07:03:21.907Z,99627.94
2022-10-01T07:05:50.892Z,99635.59
2022-10-01T07:08:19.534Z,99616.59
2022-10-01T07:10:47.895Z,99621.09
2022-10-01T07:13:20.444Z,99626.34
2022-10-01T07:15:49.215Z,99629.78
2022-10-01T07:18:18.127Z,99618.63
2022-10-01T07:20:49.376Z,99621.84
2022-10-01T07:23:18.169Z,99607.19
2022-10-01T07:25:46.846Z,99612.16
2022-10-01T07:28:18.461Z,99604.38
2022-10-01T07:30:48.820Z,99623.28
2022-10-01T07:33:22.798Z,99619.81
2022-10-01T07:35:53.220Z,99582.84
2022-10-01T07:38:21.882Z,99551.88
2022-10-01T07:40:53.164Z,99597.81
2022-10-01T07:43:22.648Z,99605.72
2022-10-01T07:45:52.625Z,99604.56
2022-10-01T07:48:21.071Z,99575.38
2022-10-01T07:50:49.801Z,99602.50
2022-10-01T07:53:19.862Z,99557.88
2022-10-01T07:55:48.243Z,99596.19
2022-10-01T07:58:16.648Z,99587.34
2022-10-01T08:00:45.149Z,99564.72
2022-10-01T08:03:13.575Z,99564.84
2022-10-01T08:05:43.315Z,99587.06
2022-10-01T08:08:11.681Z,99582.44
2022-10-01T08:10:41.486Z,99542.00
2022-10-01T08:13:15.437Z,99576.16
2022-10-01T08:15:44.506Z,99554.81
2022-10-01T08:18:13.637Z,99557.22
2022-10-01T08:20:42.311Z,99557.50
2022-10-01T08:23:12.610Z,99550.88
2022-10-01T08:25:43.875Z,99538.22
2022-10-01T08:28:13.367Z,99553.44
2022-10-01T08:30:43.966Z,99531.97
2022-10-01T08:33:13.620Z,99535.13
2022-10-01T08:35:43.707Z,99535.75
2022-10-01T08:38:12.921Z,99551.66
2022-10-01T08:40:47.474Z,99533.78
2022-10-01T08:43:29.183Z,99533.50
2022-10-01T08:45:59.991Z,99524.28
2022-10-01T08:48:40.043Z,99528.91
2022-10-01T08:51:11.348Z,99525.03
2022-10-01T08:53:42.464Z,99516.16
2022-10-01T08:56:22.899Z,99497.75
2022-10-01T08:58:55.171Z,99495.31
2022-10-01T09:01:23.876Z,99473.88
2022-10-01T09:03:52.354Z,99495.09
2022-10-01T09:06:22.931Z,99471.81
2022-10-01T09:08:59.642Z,99477.63
2022-10-01T09:11:45.745Z,99498.59
2022-10-01T09:14:25.467Z,99483.75
2022-10-01T09:17:01.344Z,99467.41
2022-10-01T09:19:47.736Z,99479.47
2022-10-01T09:22:33.262Z,99471.91
2022-10-01T09:25:08.297Z,99444.41
2022-10-01T09:27:39.575Z,99475.66
2022-10-01T09:30:13.367Z,99475.41
2022-10-01T09:32:45.027Z,99470.38
2022-10-01T09:35:22.409Z,99467.47
2022-10-01T09:37:55.135Z,99466.88
2022-10-01T09:40:28.832Z,99463.88
2022-10-01T09:42:59.162Z,99465.38
2022-10-01T09:45:28.435Z,99418.22
2022-10-01T09:48:01.682Z,99420.69
2022-10-01T09:50:36.722Z,99454.59
2022-10-01T09:53:05.670Z,99445.41
2022-10-01T09:55:37.943Z,99423.66
2022-10-01T09:58:13.677Z,99435.53
2022-10-01T10:00:43.101Z,99435.69
2022-10-01T10:03:11.702Z,99426.19
2022-10-01T10:08:46.119Z,99441.41
2022-10-01T10:11:22.387Z,99432.00
2022-10-01T10:13:53.594Z,99415.16
2022-10-01T10:16:26.623Z,99389.59
2022-10-01T10:18:58.108Z,99425.34
2022-10-01T10:21:29.860Z,99412.53
2022-10-01T10:23:59.545Z,99426.28
2022-10-01T10:26:32.701Z,99415.00
2022-10-01T10:29:03.883Z,99374.00
2022-10-01T10:31:40.868Z,99405.38
2022-10-01T10:34:14.446Z,99383.88
2022-10-01T10:36:43.047Z,99383.06
2022-10-01T10:39:20.996Z,99385.66
2022-10-01T10:41:50.638Z,99389.63
2022-10-01T10:44:22.527Z,99380.94
2022-10-01T10:46:52.013Z,99343.53
2022-10-01T10:49:22.881Z,99381.94
2022-10-01T10:51:54.152Z,99387.81
2022-10-01T10:54:25.782Z,99386.88
2022-10-01T10:57:02.539Z,99385.78
2022-10-01T10:59:34.500Z,99383.22
2022-10-01T11:02:04.895Z,99373.00
2022-10-01T11:04:40.572Z,99346.56
2022-10-01T11:07:09.083Z,99374.31
2022-10-01T11:09:48.230Z,99375.06
2022-10-01T11:12:26.693Z,99366.22
2022-10-01T11:15:07.449Z,99372.97
2022-10-01T11:17:51.327Z,99362.06
2022-10-01T11:20:34.118Z,99366.84
2022-10-01T11:23:16.814Z,99357.50
2022-10-01T11:25:54.055Z,99346.50
2022-10-01T11:28:33.440Z,99347.56
2022-10-01T11:31:10.928Z,99353.81
2022-10-01T11:33:47.126Z,99346.66
2022-10-01T11:36:21.244Z,99339.78
2022-10-01T11:38:53.758Z,99331.41
2022-10-01T11:41:40.333Z,99345.16
2022-10-01T11:44:13.900Z,99344.19
2022-10-01T11:46:50.366Z,99326.34
2022-10-01T11:49:28.096Z,99340.84
2022-10-01T11:52:05.038Z,99317.47
2022-10-01T11:54:35.962Z,99325.69
2022-10-01T11:57:23.034Z,99318.69
2022-10-01T11:59:54.770Z,99330.63
2022-10-01T12:02:28.729Z,99335.81
2022-10-01T12:04:59.854Z,99332.94
2022-10-01T12:07:31.776Z,99329.28
2022-10-01T12:10:07.676Z,99313.81
2022-10-01T12:12:40.661Z,99306.56
2022-10-01T12:15:13.963Z,99315.59
2022-10-01T12:17:46.684Z,99316.19
2022-10-01T12:20:23.781Z,99287.72
2022-10-01T12:22:53.465Z,99307.66
2022-10-01T12:25:25.206Z,99271.78
2022-10-01T12:27:59.060Z,99261.72
2022-10-01T12:30:30.188Z,99269.88
2022-10-01T12:33:15.594Z,99272.19
2022-10-01T12:35:58.044Z,99271.88
2022-10-01T12:38:43.677Z,99271.44
2022-10-01T12:41:23.081Z,99272.63
2022-10-01T12:44:21.957Z,99212.41
2022-10-01T12:46:58.208Z,99262.63
2022-10-01T12:49:33.125Z,99250.63
2022-10-01T12:52:07.372Z,99246.38
2022-10-01T12:55:07.277Z,99270.88
2022-10-01T12:57:43.143Z,99234.84
2022-10-01T13:00:16.852Z,99273.25
2022-10-01T13:03:23.715Z,99275.25
2022-10-01T13:06:00.637Z,99242.66
2022-10-01T13:08:38.308Z,99253.38
2022-10-01T13:11:11.479Z,99262.19
2022-10-01T13:13:40.335Z,99261.31
2022-10-01T13:16:14.392Z,99248.38
2022-10-01T13:18:54.564Z,99199.06
2022-10-01T13:21:32.438Z,99212.78
2022-10-01T13:24:03.196Z,99235.75
2022-10-01T13:26:34.215Z,99181.38
2022-10-01T13:29:10.084Z,99216.28
2022-10-01T13:31:41.546Z,99236.78
2022-10-01T13:34:36.238Z,99231.63
2022-10-01T13:37:17.409Z,99241.28
2022-10-01T13:39:46.170Z,99204.06
2022-10-01T13:42:27.518Z,99192.03
2022-10-01T13:44:58.492Z,99236.44
2022-10-01T13:47:27.993Z,99239.81
2022-10-01T13:49:59.185Z,99244.25
2022-10-01T13:52:29.229Z,99221.06
2022-10-01T13:54:58.229Z,99231.44
2022-10-01T13:57:34.086Z,99242.56
2022-10-01T14:00:20.685Z,99231.28
2022-10-01T14:03:01.867Z,99235.69
2022-10-01T14:05:35.137Z,99226.19
2022-10-01T14:08:17.411Z,99228.81
2022-10-01T14:11:07.676Z,99221.38
2022-10-01T14:13:56.790Z,99218.72
2022-10-01T14:16:25.390Z,99222.91
2022-10-01T14:18:54.097Z,99187.72
2022-10-01T14:21:47.448Z,99202.91
2022-10-01T14:24:25.620Z,99204.66
2022-10-01T14:26:55.929Z,99186.59
2022-10-01T14:29:36.083Z,99183.41
2022-10-01T14:32:13.804Z,99180.88
2022-10-01T14:34:52.119Z,99178.03
2022-10-01T14:37:20.984Z,99174.50
2022-10-01T14:40:02.054Z,99148.03
2022-10-01T14:42:32.057Z,99176.22
2022-10-01T14:45:00.561Z,99150.56
2022-10-01T14:47:35.643Z,99171.81
2022-10-01T14:50:11.420Z,99176.16
2022-10-01T14:52:42.553Z,99165.09
2022-10-01T14:55:16.224Z,99159.69
2022-10-01T14:57:46.970Z,99159.81
2022-10-01T15:00:16.790Z,99145.41
2022-10-01T15:02:47.093Z,99160.19
2022-10-01T15:05:22.303Z,99161.34
2022-10-01T15:07:51.020Z,99152.69
2022-10-01T15:10:24.166Z,99145.06
2022-10-01T15:12:53.506Z,99140.13
2022-10-01T15:15:23.503Z,99144.00
2022-10-01T15:17:52.168Z,99118.59
2022-10-01T15:20:20.722Z,99125.38
2022-10-01T15:22:50.151Z,99130.69
2022-10-01T15:25:22.966Z,99121.34
2022-10-01T15:27:54.226Z,99102.44
2022-10-01T15:30:22.738Z,99110.16
2022-10-01T15:32:51.977Z,99101.53
2022-10-01T15:35:24.648Z,99070.25
2022-10-01T15:37:53.825Z,99077.66
2022-10-01T15:40:27.544Z,99089.75
2022-10-01T15:43:24.314Z,99073.53
2022-10-01T15:46:11.073Z,99070.81
2022-10-01T15:48:39.588Z,99071.72
2022-10-01T15:51:22.704Z,99070.84
2022-10-01T15:53:52.718Z,99059.06
2022-10-01T15:56:24.231Z,99066.81
2022-10-01T15:58:54.744Z,99062.53
2022-10-01T16:01:25.586Z,99059.94
2022-10-01T16:03:56.710Z,99062.53
2022-10-01T16:06:28.536Z,99055.53
2022-10-01T16:09:06.256Z,99014.41
2022-10-01T16:11:51.824Z,99013.66
2022-10-01T16:14:30.042Z,99030.41
2022-10-01T16:17:37.730Z,99031.91
2022-10-01T16:20:50.486Z,99024.00
2022-10-01T16:23:38.660Z,99013.47
2022-10-01T16:26:24.395Z,99009.97
2022-10-01T16:28:57.161Z,99011.66
2022-10-01T16:31:29.080Z,99002.06
2022-10-01T16:33:57.582Z,98974.81
2022-10-01T16:36:26.663Z,99007.22
2022-10-01T16:38:55.192Z,98981.63
2022-10-01T16:41:24.987Z,98981.56
2022-10-01T16:43:56.374Z,98985.50
2022-10-01T16:46:24.772Z,98989.69
2022-10-01T16:48:53.238Z,98981.81
2022-10-01T16:51:22.757Z,98977.50
2022-10-01T16:53:57.104Z,98975.78
2022-10-01T16:56:27.303Z,98963.78
2022-10-01T16:58:57.345Z,98961.16
2022-10-01T17:01:32.896Z,98960.06
2022-10-01T17:04:01.574Z,98959.97
2022-10-01T17:06:29.962Z,98923.16
2022-10-01T17:08:58.360Z,98903.72
2022-10-01T17:11:27.344Z,98944.31
2022-10-01T17:13:57.333Z,98918.69
2022-10-01T17:16:25.836Z,98926.00
2022-10-01T17:18:54.253Z,98917.38
2022-10-01T17:21:22.669Z,98918.22
2022-10-01T17:23:53.495Z,98907.66
2022-10-01T17:26:22.033Z,98885.41
2022-10-01T17:28:50.744Z,98884.53
2022-10-01T17:31:20.543Z,98881.16
2022-10-01T17:33:51.249Z,98895.59
2022-10-01T17:36:19.912Z,98894.59
2022-10-01T17:38:48.440Z,98885.88
2022-10-01T17:41:17.235Z,98862.69
2022-10-01T17:43:45.849Z,98855.56
2022-10-01T17:46:14.286Z,98856.53
2022-10-01T17:48:44.115Z,98863.94
2022-10-01T17:51:14.527Z,98849.31
2022-10-01T17:53:44.423Z,98817.59
2022-10-01T17:56:15.802Z,98837.75
2022-10-01T17:58:45.929Z,98831.69
2022-10-01T18:01:19.876Z,98830.06
2022-10-01T18:03:54.143Z,98806.28
2022-10-01T18:06:23.753Z,98822.97
2022-10-01T18:08:56.450Z,98822.97
2022-10-01T18:11:25.856Z,98804.03
2022-10-01T18:13:54.341Z,98794.50
2022-10-01T18:16:23.196Z,98769.81
2022-10-01T18:21:46.080Z,98778.19
2022-10-01T18:24:14.637Z,98781.44
2022-10-01T18:26:43.030Z,98772.97
2022-10-01T18:29:13.407Z,98764.00
2022-10-01T18:31:44.775Z,98774.06
2022-10-01T18:34:19.840Z,98769.75
2022-10-01T18:36:54.567Z,98765.28
2022-10-01T18:39:29.809Z,98765.63
2022-10-01T18:41:58.435Z,98771.44
2022-10-01T18:44:27.272Z,98758.97
2022-10-01T18:47:04.548Z,98781.09
2022-10-01T18:49:55.959Z,98770.72
2022-10-01T18:52:31.116Z,98761.78
2022-10-01T18:55:25.412Z,98777.19
2022-10-01T18:58:07.973Z,98752.72
2022-10-01T19:00:41.813Z,98757.28
2022-10-01T19:03:31.601Z,98770.66
2022-10-01T19:06:13.648Z,98724.00
2022-10-01T19:08:52.572Z,98766.78
2022-10-01T19:11:27.336Z,98750.47
2022-10-01T19:14:12.412Z,98731.88
2022-10-01T19:16:47.830Z,98751.53
2022-10-01T19:19:28.833Z,98762.06
2022-10-01T19:22:01.945Z,98755.22
2022-10-01T19:24:42.241Z,98740.75
2022-10-01T19:27:19.489Z,98726.13
2022-10-01T19:29:57.682Z,98735.94
2022-10-01T19:32:28.716Z,98700.91
2022-10-01T19:35:02.168Z,98731.38
2022-10-01T19:37:37.985Z,98732.13
2022-10-01T19:40:13.936Z,98721.66
2022-10-01T19:42:46.466Z,98696.09
2022-10-01T19:45:20.014Z,98709.53
2022-10-01T19:47:53.863Z,98701.63
2022-10-01T19:50:25.073Z,98678.56
2022-10-01T19:52:58.187Z,98679.22
2022-10-01T19:55:27.886Z,98649.34
2022-10-01T19:57:56.296Z,98675.09
2022-10-01T20:00:26.058Z,98677.34
2022-10-01T20:03:00.818Z,98671.13
2022-10-01T20:05:31.071Z,98658.91
2022-10-01T20:08:07.552Z,98658.16
2022-10-01T20:10:39.829Z,98655.53
2022-10-01T20:13:23.679Z,98660.59
2022-10-01T20:15:59.983Z,98650.03
2022-10-01T20:18:35.272Z,98629.50
2022-10-01T20:21:12.725Z,98631.34
2022-10-01T20:23:47.180Z,98638.91
2022-10-01T20:26:21.215Z,98639.81
2022-10-01T20:28:58.538Z,98627.31
2022-10-01T20:31:31.202Z,98640.84
2022-10-01T20:34:04.057Z,98624.63
2022-10-01T20:36:36.726Z,98600.13
2022-10-01T20:39:11.902Z,98645.03
2022-10-01T20:41:45.156Z,98617.91
2022-10-01T20:44:16.772Z,98638.03
2022-10-01T20:46:48.201Z,98634.50
2022-10-01T20:49:23.334Z,98614.09
2022-10-01T20:51:56.268Z,98619.56
2022-10-01T20:54:32.755Z,98619.56
2022-10-01T20:57:06.800Z,98627.94
2022-10-01T20:59:39.273Z,98629.84
2022-10-01T21:02:28.709Z,98623.91
2022-10-01T21:05:05.760Z,98619.03
2022-10-01T21:07:38.161Z,98628.41
2022-10-01T21:10:17.286Z,98626.59
2022-10-01T21:12:52.602Z,98621.63
2022-10-01T21:15:26.528Z,98598.06
2022-10-01T21:18:00.953Z,98626.84
2022-10-01T21:20:43.908Z,98627.84
2022-10-01T21:23:24.753Z,98603.13
2022-10-01T21:26:02.950Z,98621.00
2022-10-01T21:28:45.009Z,98628.66
2022-10-01T21:31:25.673Z,98607.88
2022-10-01T21:33:55.605Z,98580.84
2022-10-01T21:36:29.534Z,98617.31
2022-10-01T21:39:01.904Z,98590.16
2022-10-01T21:41:48.520Z,98582.53
2022-10-01T21:44:44.807Z,98624.88
2022-10-01T21:47:18.066Z,98611.31
2022-10-01T21:49:53.048Z,98614.44
2022-10-01T21:52:27.446Z,98615.59
2022-10-01T21:55:17.235Z,98608.03
2022-10-01T21:58:01.524Z,98616.50
2022-10-01T22:00:30.823Z,98605.59
2022-10-01T22:03:07.584Z,98614.00
2022-10-01T22:05:40.701Z,98637.13
2022-10-01T22:08:20.172Z,98619.94
2022-10-01T22:10:51.271Z,98622.00
2022-10-01T22:13:23.318Z,98629.19
2022-10-01T22:15:54.515Z,98621.06
2022-10-01T22:18:32.723Z,98638.00
2022-10-01T22:21:02.217Z,98635.38
2022-10-01T22:23:32.617Z,98631.09
2022-10-01T22:26:05.079Z,98591.41
2022-10-01T22:28:38.421Z,98632.91
2022-10-01T22:31:11.494Z,98623.22
2022-10-01T22:33:45.117Z,98640.78
2022-10-01T22:36:17.278Z,98650.41
2022-10-01T22:38:51.509Z,98630.78
2022-10-01T22:41:23.984Z,98646.16
2022-10-01T22:43:53.797Z,98650.84
2022-10-01T22:46:47.184Z,98639.75
2022-10-01T22:49:25.573Z,98643.03
2022-10-01T22:52:04.113Z,98631.47
2022-10-01T22:54:40.296Z,98633.38
2022-10-01T22:57:17.261Z,98627.31
2022-10-01T22:59:53.216Z,98627.69
2022-10-01T23:02:26.694Z,98631.59
2022-10-01T23:05:06.446Z,98611.00
2022-10-01T23:07:43.809Z,98625.00
2022-10-01T23:10:15.462Z,98643.13
2022-10-01T23:13:01.321Z,98646.75
2022-10-01T23:15:37.242Z,98658.31
2022-10-01T23:18:11.141Z,98622.56
2022-10-01T23:20:43.814Z,98656.63
2022-10-01T23:23:25.603Z,98653.25
2022-10-01T23:26:20.542Z,98620.38
2022-10-01T23:28:59.404Z,98651.97
2022-10-01T23:31:34.504Z,98662.25
2022-10-01T23:34:15.670Z,98658.09
2022-10-01T23:36:49.356Z,98660.81
2022-10-01T23:39:34.815Z,98652.66
2022-10-01T23:42:08.282Z,98659.88
2022-10-01T23:44:40.438Z,98632.22
2022-10-01T23:47:15.584Z,98663.22
2022-10-01T23:49:46.388Z,98669.88
2022-10-01T23:52:16.862Z,98669.28
2022-10-01T23:54:49.414Z,98668.69
2022-10-01T23:57:21.760Z,98640.97
2022-10-01T23:59:54.126Z,98669.31
